sensor_id;sensor_type;location;lat;lon;timestamp;temperature;humidity
23609;DHT22;11982;50.810;4.442;2023-12-20T00:01:47;6.00;99.90
23609;DHT22;11982;50.810;4.442;2023-12-20T00:04:13;6.00;99.90
23609;DHT22;11982;50.810;4.442;2023-12-20T00:06:38;5.90;99.90
23609;DHT22;11982;50.810;4.442;2023-12-20T00:09:04;5.90;99.90
23609;DHT22;11982;50.810;4.442;2023-12-20T00:11:29;5.90;99.90
23609;DHT22;11982;50.810;4.442;2023-12-20T00:13:55;5.80;99.90
23609;DHT22;11982;50.810;4.442;2023-12-20T00:19:42;6.00;99.90
23609;DHT22;11982;50.810;4.442;2023-12-20T00:22:08;6.10;99.90
23609;DHT22;11982;50.810;4.442;2023-12-20T00:24:34;6.00;99.90
23609;DHT22;11982;50.810;4.442;2023-12-20T00:26:59;5.90;99.90
23609;DHT22;11982;50.810;4.442;2023-12-20T00:29:25;5.90;99.90
23609;DHT22;11982;50.810;4.442;2023-12-20T00:35:13;5.80;99.90
23609;DHT22;11982;50.810;4.442;2023-12-20T00:37:39;5.80;99.90
23609;DHT22;11982;50.810;4.442;2023-12-20T00:40:05;5.80;99.90
23609;DHT22;11982;50.810;4.442;2023-12-20T00:42:32;5.70;99.90
23609;DHT22;11982;50.810;4.442;2023-12-20T00:44:59;5.70;99.90
23609;DHT22;11982;50.810;4.442;2023-12-20T00:47:24;5.70;99.90
23609;DHT22;11982;50.810;4.442;2023-12-20T00:49:50;5.60;99.90
23609;DHT22;11982;50.810;4.442;2023-12-20T00:52:15;5.60;99.90
23609;DHT22;11982;50.810;4.442;2023-12-20T00:54:43;5.50;99.90
23609;DHT22;11982;50.810;4.442;2023-12-20T00:57:09;5.50;99.90
23609;DHT22;11982;50.810;4.442;2023-12-20T00:59:34;5.50;99.90
23609;DHT22;11982;50.810;4.442;2023-12-20T01:05:22;5.40;99.90
23609;DHT22;11982;50.810;4.442;2023-12-20T01:07:48;5.40;99.90
23609;DHT22;11982;50.810;4.442;2023-12-20T01:10:15;5.40;99.90
23609;DHT22;11982;50.810;4.442;2023-12-20T01:12:40;5.30;99.90
23609;DHT22;11982;50.810;4.442;2023-12-20T01:15:06;5.30;99.90
23609;DHT22;11982;50.810;4.442;2023-12-20T01:20:53;5.30;99.90
23609;DHT22;11982;50.810;4.442;2023-12-20T01:23:19;5.30;99.90
23609;DHT22;11982;50.810;4.442;2023-12-20T01:25:45;5.30;99.90
23609;DHT22;11982;50.810;4.442;2023-12-20T01:28:10;5.20;99.90
23609;DHT22;11982;50.810;4.442;2023-12-20T01:30:36;5.20;99.90
23609;DHT22;11982;50.810;4.442;2023-12-20T01:33:02;5.20;99.90
23609;DHT22;11982;50.810;4.442;2023-12-20T01:35:27;5.20;99.90
23609;DHT22;11982;50.810;4.442;2023-12-20T01:37:53;5.20;99.90
23609;DHT22;11982;50.810;4.442;2023-12-20T01:40:22;5.10;99.90
23609;DHT22;11982;50.810;4.442;2023-12-20T01:43:01;5.10;99.90
23609;DHT22;11982;50.810;4.442;2023-12-20T01:45:27;5.10;99.90
23609;DHT22;11982;50.810;4.442;2023-12-20T01:51:14;5.10;99.90
23609;DHT22;11982;50.810;4.442;2023-12-20T01:53:42;5.20;99.90
23609;DHT22;11982;50.810;4.442;2023-12-20T01:56:08;5.10;99.90
23609;DHT22;11982;50.810;4.442;2023-12-20T01:58:39;5.10;99.90
23609;DHT22;11982;50.810;4.442;2023-12-20T02:01:09;5.10;99.90
23609;DHT22;11982;50.810;4.442;2023-12-20T02:03:35;5.10;99.90
23609;DHT22;11982;50.810;4.442;2023-12-20T02:06:02;5.10;99.90
23609;DHT22;11982;50.810;4.442;2023-12-20T02:08:28;5.10;99.90
23609;DHT22;11982;50.810;4.442;2023-12-20T02:10:55;5.20;99.90
23609;DHT22;11982;50.810;4.442;2023-12-20T02:13:21;5.30;99.90
23609;DHT22;11982;50.810;4.442;2023-12-20T02:15:47;5.30;99.90
23609;DHT22;11982;50.810;4.442;2023-12-20T02:21:34;5.20;99.90
23609;DHT22;11982;50.810;4.442;2023-12-20T02:24:00;5.10;99.90
23609;DHT22;11982;50.810;4.442;2023-12-20T02:26:26;5.20;99.90
23609;DHT22;11982;50.810;4.442;2023-12-20T02:28:52;5.10;99.90
23609;DHT22;11982;50.810;4.442;2023-12-20T02:31:21;5.10;99.90
23609;DHT22;11982;50.810;4.442;2023-12-20T02:33:47;5.10;99.90
23609;DHT22;11982;50.810;4.442;2023-12-20T02:36:13;5.10;99.90
23609;DHT22;11982;50.810;4.442;2023-12-20T02:38:39;5.10;99.90
23609;DHT22;11982;50.810;4.442;2023-12-20T02:41:04;5.10;99.90
23609;DHT22;11982;50.810;4.442;2023-12-20T02:43:30;5.00;99.90
23609;DHT22;11982;50.810;4.442;2023-12-20T02:45:55;5.00;99.90
23609;DHT22;11982;50.810;4.442;2023-12-20T02:51:43;5.00;99.90
23609;DHT22;11982;50.810;4.442;2023-12-20T02:54:08;5.00;99.90
23609;DHT22;11982;50.810;4.442;2023-12-20T02:56:34;5.10;99.90
23609;DHT22;11982;50.810;4.442;2023-12-20T02:59:00;5.10;99.90
23609;DHT22;11982;50.810;4.442;2023-12-20T03:01:27;5.10;99.90
23609;DHT22;11982;50.810;4.442;2023-12-20T03:07:14;5.10;99.90
23609;DHT22;11982;50.810;4.442;2023-12-20T03:09:40;5.10;99.90
23609;DHT22;11982;50.810;4.442;2023-12-20T03:12:05;5.10;99.90
23609;DHT22;11982;50.810;4.442;2023-12-20T03:14:31;5.20;99.90
23609;DHT22;11982;50.810;4.442;2023-12-20T03:16:57;5.20;99.90
23609;DHT22;11982;50.810;4.442;2023-12-20T03:19:22;5.20;99.90
23609;DHT22;11982;50.810;4.442;2023-12-20T03:21:48;5.30;99.90
23609;DHT22;11982;50.810;4.442;2023-12-20T03:24:14;5.30;99.90
23609;DHT22;11982;50.810;4.442;2023-12-20T03:26:39;5.30;99.90
23609;DHT22;11982;50.810;4.442;2023-12-20T03:29:05;5.30;99.90
23609;DHT22;11982;50.810;4.442;2023-12-20T03:31:31;5.30;99.90
23609;DHT22;11982;50.810;4.442;2023-12-20T03:37:18;5.40;99.90
23609;DHT22;11982;50.810;4.442;2023-12-20T03:39:44;5.40;99.90
23609;DHT22;11982;50.810;4.442;2023-12-20T03:42:10;5.40;99.90
23609;DHT22;11982;50.810;4.442;2023-12-20T03:44:38;5.40;99.90
23609;DHT22;11982;50.810;4.442;2023-12-20T03:47:05;5.50;99.90
23609;DHT22;11982;50.810;4.442;2023-12-20T03:52:53;5.40;99.90
23609;DHT22;11982;50.810;4.442;2023-12-20T03:55:18;5.40;99.90
23609;DHT22;11982;50.810;4.442;2023-12-20T03:57:44;5.40;99.90
23609;DHT22;11982;50.810;4.442;2023-12-20T04:00:11;5.40;99.90
23609;DHT22;11982;50.810;4.442;2023-12-20T04:02:41;5.40;99.90
23609;DHT22;11982;50.810;4.442;2023-12-20T04:05:08;5.40;99.90
23609;DHT22;11982;50.810;4.442;2023-12-20T04:07:33;5.40;99.90
23609;DHT22;11982;50.810;4.442;2023-12-20T04:10:00;5.50;99.90
23609;DHT22;11982;50.810;4.442;2023-12-20T04:12:27;5.50;99.90
23609;DHT22;11982;50.810;4.442;2023-12-20T04:14:53;5.50;99.90
23609;DHT22;11982;50.810;4.442;2023-12-20T04:17:20;5.50;99.90
23609;DHT22;11982;50.810;4.442;2023-12-20T04:23:07;5.60;99.90
23609;DHT22;11982;50.810;4.442;2023-12-20T04:25:33;5.50;99.90
23609;DHT22;11982;50.810;4.442;2023-12-20T04:27:59;5.40;99.90
23609;DHT22;11982;50.810;4.442;2023-12-20T04:30:24;5.40;99.90
23609;DHT22;11982;50.810;4.442;2023-12-20T04:32:50;5.40;99.90
23609;DHT22;11982;50.810;4.442;2023-12-20T04:38:37;5.40;99.90
23609;DHT22;11982;50.810;4.442;2023-12-20T04:41:03;5.30;99.90
23609;DHT22;11982;50.810;4.442;2023-12-20T04:43:29;5.30;99.90
23609;DHT22;11982;50.810;4.442;2023-12-20T04:45:55;5.30;99.90
23609;DHT22;11982;50.810;4.442;2023-12-20T04:48:21;5.40;99.90
23609;DHT22;11982;50.810;4.442;2023-12-20T04:50:46;5.40;99.90
23609;DHT22;11982;50.810;4.442;2023-12-20T04:53:12;5.40;99.90
23609;DHT22;11982;50.810;4.442;2023-12-20T04:55:37;5.40;99.90
23609;DHT22;11982;50.810;4.442;2023-12-20T04:58:06;5.40;99.90
23609;DHT22;11982;50.810;4.442;2023-12-20T05:00:32;5.40;99.90
23609;DHT22;11982;50.810;4.442;2023-12-20T05:02:57;5.40;99.90
23609;DHT22;11982;50.810;4.442;2023-12-20T05:08:45;5.50;99.90
23609;DHT22;11982;50.810;4.442;2023-12-20T05:11:11;5.50;99.90
23609;DHT22;11982;50.810;4.442;2023-12-20T05:13:38;5.50;99.90
23609;DHT22;11982;50.810;4.442;2023-12-20T05:16:04;5.50;99.90
23609;DHT22;11982;50.810;4.442;2023-12-20T05:18:30;5.50;99.90
23609;DHT22;11982;50.810;4.442;2023-12-20T05:20:55;5.50;99.90
23609;DHT22;11982;50.810;4.442;2023-12-20T05:23:21;5.50;99.90
23609;DHT22;11982;50.810;4.442;2023-12-20T05:25:47;5.50;99.90
23609;DHT22;11982;50.810;4.442;2023-12-20T05:28:12;5.50;99.90
23609;DHT22;11982;50.810;4.442;2023-12-20T05:30:38;5.40;99.90
23609;DHT22;11982;50.810;4.442;2023-12-20T05:33:04;5.40;99.90
23609;DHT22;11982;50.810;4.442;2023-12-20T05:38:51;5.20;99.90
23609;DHT22;11982;50.810;4.442;2023-12-20T05:41:17;5.20;99.90
23609;DHT22;11982;50.810;4.442;2023-12-20T05:43:42;5.10;99.90
23609;DHT22;11982;50.810;4.442;2023-12-20T05:46:10;5.20;99.90
23609;DHT22;11982;50.810;4.442;2023-12-20T05:48:37;5.20;99.90
23609;DHT22;11982;50.810;4.442;2023-12-20T05:54:25;5.10;99.90
23609;DHT22;11982;50.810;4.442;2023-12-20T05:56:51;5.10;99.90
23609;DHT22;11982;50.810;4.442;2023-12-20T05:59:16;5.00;99.90
23609;DHT22;11982;50.810;4.442;2023-12-20T06:01:42;5.00;99.90
23609;DHT22;11982;50.810;4.442;2023-12-20T06:04:08;5.00;99.90
23609;DHT22;11982;50.810;4.442;2023-12-20T06:06:33;5.10;99.90
23609;DHT22;11982;50.810;4.442;2023-12-20T06:08:59;5.10;99.90
23609;DHT22;11982;50.810;4.442;2023-12-20T06:11:25;5.00;99.90
23609;DHT22;11982;50.810;4.442;2023-12-20T06:13:51;5.00;99.90
23609;DHT22;11982;50.810;4.442;2023-12-20T06:16:18;4.90;99.90
23609;DHT22;11982;50.810;4.442;2023-12-20T06:18:44;5.00;99.90
23609;DHT22;11982;50.810;4.442;2023-12-20T06:24:32;5.10;99.90
23609;DHT22;11982;50.810;4.442;2023-12-20T06:26:59;5.10;99.90
23609;DHT22;11982;50.810;4.442;2023-12-20T06:29:25;5.20;99.90
23609;DHT22;11982;50.810;4.442;2023-12-20T06:31:51;5.20;99.90
23609;DHT22;11982;50.810;4.442;2023-12-20T06:34:16;5.10;99.90
23609;DHT22;11982;50.810;4.442;2023-12-20T06:40:04;5.20;99.90
23609;DHT22;11982;50.810;4.442;2023-12-20T06:42:30;5.20;99.90
23609;DHT22;11982;50.810;4.442;2023-12-20T06:44:56;5.20;99.90
23609;DHT22;11982;50.810;4.442;2023-12-20T06:47:21;5.20;99.90
23609;DHT22;11982;50.810;4.442;2023-12-20T06:49:47;5.20;99.90
23609;DHT22;11982;50.810;4.442;2023-12-20T06:52:13;5.10;99.90
23609;DHT22;11982;50.810;4.442;2023-12-20T06:54:39;5.10;99.90
23609;DHT22;11982;50.810;4.442;2023-12-20T06:57:04;5.10;99.90
23609;DHT22;11982;50.810;4.442;2023-12-20T06:59:30;5.00;99.90
23609;DHT22;11982;50.810;4.442;2023-12-20T07:01:56;5.00;99.90
23609;DHT22;11982;50.810;4.442;2023-12-20T07:04:21;4.90;99.90
23609;DHT22;11982;50.810;4.442;2023-12-20T07:10:09;4.80;99.90
23609;DHT22;11982;50.810;4.442;2023-12-20T07:12:35;4.80;99.90
23609;DHT22;11982;50.810;4.442;2023-12-20T07:15:01;4.70;99.90
23609;DHT22;11982;50.810;4.442;2023-12-20T07:17:26;4.70;99.90
23609;DHT22;11982;50.810;4.442;2023-12-20T07:19:52;4.70;99.90
23609;DHT22;11982;50.810;4.442;2023-12-20T07:25:40;4.70;99.90
23609;DHT22;11982;50.810;4.442;2023-12-20T07:28:06;4.70;99.90
23609;DHT22;11982;50.810;4.442;2023-12-20T07:30:32;4.70;99.90
23609;DHT22;11982;50.810;4.442;2023-12-20T07:32:57;4.70;99.90
23609;DHT22;11982;50.810;4.442;2023-12-20T07:35:23;4.70;99.90
23609;DHT22;11982;50.810;4.442;2023-12-20T07:37:50;4.70;99.90
23609;DHT22;11982;50.810;4.442;2023-12-20T07:40:16;4.70;99.90
23609;DHT22;11982;50.810;4.442;2023-12-20T07:42:42;4.70;99.90
23609;DHT22;11982;50.810;4.442;2023-12-20T07:45:08;4.70;99.90
23609;DHT22;11982;50.810;4.442;2023-12-20T07:47:36;4.60;99.90
23609;DHT22;11982;50.810;4.442;2023-12-20T07:50:01;4.70;99.90
23609;DHT22;11982;50.810;4.442;2023-12-20T07:55:50;4.60;99.90
23609;DHT22;11982;50.810;4.442;2023-12-20T07:58:17;4.60;99.90
23609;DHT22;11982;50.810;4.442;2023-12-20T08:00:43;4.60;99.90
23609;DHT22;11982;50.810;4.442;2023-12-20T08:03:09;4.60;99.90
23609;DHT22;11982;50.810;4.442;2023-12-20T08:05:35;4.70;99.90
23609;DHT22;11982;50.810;4.442;2023-12-20T08:11:23;4.70;99.90
23609;DHT22;11982;50.810;4.442;2023-12-20T08:13:48;4.70;99.90
23609;DHT22;11982;50.810;4.442;2023-12-20T08:16:14;4.70;99.90
23609;DHT22;11982;50.810;4.442;2023-12-20T08:18:43;4.70;99.90
23609;DHT22;11982;50.810;4.442;2023-12-20T08:21:08;4.70;99.90
23609;DHT22;11982;50.810;4.442;2023-12-20T08:23:34;4.70;99.90
23609;DHT22;11982;50.810;4.442;2023-12-20T08:26:09;4.70;99.90
23609;DHT22;11982;50.810;4.442;2023-12-20T08:28:36;4.70;99.90
23609;DHT22;11982;50.810;4.442;2023-12-20T08:31:02;4.80;99.90
23609;DHT22;11982;50.810;4.442;2023-12-20T08:33:27;4.70;99.90
23609;DHT22;11982;50.810;4.442;2023-12-20T08:35:53;4.80;99.90
23609;DHT22;11982;50.810;4.442;2023-12-20T08:41:40;4.80;99.90
23609;DHT22;11982;50.810;4.442;2023-12-20T08:44:06;4.80;99.90
23609;DHT22;11982;50.810;4.442;2023-12-20T08:46:31;4.80;99.90
23609;DHT22;11982;50.810;4.442;2023-12-20T08:48:57;4.90;99.90
23609;DHT22;11982;50.810;4.442;2023-12-20T08:51:23;4.90;99.90
23609;DHT22;11982;50.810;4.442;2023-12-20T08:53:51;4.90;99.90
23609;DHT22;11982;50.810;4.442;2023-12-20T08:56:16;4.90;99.90
23609;DHT22;11982;50.810;4.442;2023-12-20T08:58:44;4.90;99.90
23609;DHT22;11982;50.810;4.442;2023-12-20T09:01:09;4.90;99.90
23609;DHT22;11982;50.810;4.442;2023-12-20T09:03:35;4.90;99.90
23609;DHT22;11982;50.810;4.442;2023-12-20T09:06:01;5.00;99.90
23609;DHT22;11982;50.810;4.442;2023-12-20T09:11:49;5.00;99.90
23609;DHT22;11982;50.810;4.442;2023-12-20T09:14:16;5.10;99.90
23609;DHT22;11982;50.810;4.442;2023-12-20T09:16:42;5.10;99.90
23609;DHT22;11982;50.810;4.442;2023-12-20T09:19:08;5.10;99.90
23609;DHT22;11982;50.810;4.442;2023-12-20T09:21:33;5.20;99.90
23609;DHT22;11982;50.810;4.442;2023-12-20T09:23:59;5.20;99.90
23609;DHT22;11982;50.810;4.442;2023-12-20T09:26:24;5.30;99.90
23609;DHT22;11982;50.810;4.442;2023-12-20T09:28:50;5.30;99.90
23609;DHT22;11982;50.810;4.442;2023-12-20T09:31:16;5.40;99.90
23609;DHT22;11982;50.810;4.442;2023-12-20T09:33:41;5.40;99.90
23609;DHT22;11982;50.810;4.442;2023-12-20T09:36:07;5.40;99.90
23609;DHT22;11982;50.810;4.442;2023-12-20T09:42:04;5.50;99.90
23609;DHT22;11982;50.810;4.442;2023-12-20T09:44:31;5.50;99.90
23609;DHT22;11982;50.810;4.442;2023-12-20T09:46:57;5.60;99.90
23609;DHT22;11982;50.810;4.442;2023-12-20T09:49:23;5.70;99.90
23609;DHT22;11982;50.810;4.442;2023-12-20T09:51:51;5.80;99.90
23609;DHT22;11982;50.810;4.442;2023-12-20T09:54:18;5.90;99.90
23609;DHT22;11982;50.810;4.442;2023-12-20T09:56:47;6.00;99.90
23609;DHT22;11982;50.810;4.442;2023-12-20T09:59:13;6.10;99.90
23609;DHT22;11982;50.810;4.442;2023-12-20T10:01:42;6.20;99.90
23609;DHT22;11982;50.810;4.442;2023-12-20T10:04:10;6.20;99.90
23609;DHT22;11982;50.810;4.442;2023-12-20T10:06:41;6.30;99.90
23609;DHT22;11982;50.810;4.442;2023-12-20T10:12:29;6.50;99.90
23609;DHT22;11982;50.810;4.442;2023-12-20T10:14:54;6.40;99.90
23609;DHT22;11982;50.810;4.442;2023-12-20T10:17:21;6.40;99.90
23609;DHT22;11982;50.810;4.442;2023-12-20T10:19:47;6.40;99.90
23609;DHT22;11982;50.810;4.442;2023-12-20T10:22:13;6.40;99.90
23609;DHT22;11982;50.810;4.442;2023-12-20T10:24:40;6.50;99.90
23609;DHT22;11982;50.810;4.442;2023-12-20T10:27:07;6.60;99.90
23609;DHT22;11982;50.810;4.442;2023-12-20T10:29:35;6.80;99.90
23609;DHT22;11982;50.810;4.442;2023-12-20T10:34:50;6.90;99.90
23609;DHT22;11982;50.810;4.442;2023-12-20T10:37:16;6.90;99.90
23609;DHT22;11982;50.810;4.442;2023-12-20T10:39:42;6.90;99.90
23609;DHT22;11982;50.810;4.442;2023-12-20T10:42:11;6.90;99.90
23609;DHT22;11982;50.810;4.442;2023-12-20T10:44:37;7.00;99.90
23609;DHT22;11982;50.810;4.442;2023-12-20T10:47:04;7.10;99.90
23609;DHT22;11982;50.810;4.442;2023-12-20T10:49:31;7.10;99.90
23609;DHT22;11982;50.810;4.442;2023-12-20T10:51:57;7.10;99.90
23609;DHT22;11982;50.810;4.442;2023-12-20T10:58:03;7.20;99.90
23609;DHT22;11982;50.810;4.442;2023-12-20T11:00:31;7.30;99.90
23609;DHT22;11982;50.810;4.442;2023-12-20T11:03:01;7.20;99.90
23609;DHT22;11982;50.810;4.442;2023-12-20T11:05:49;7.40;99.90
23609;DHT22;11982;50.810;4.442;2023-12-20T11:13:54;7.40;99.90
23609;DHT22;11982;50.810;4.442;2023-12-20T11:16:20;7.40;99.90
23609;DHT22;11982;50.810;4.442;2023-12-20T11:18:46;7.40;99.90
23609;DHT22;11982;50.810;4.442;2023-12-20T11:21:12;7.40;99.90
23609;DHT22;11982;50.810;4.442;2023-12-20T11:23:42;7.40;99.90
23609;DHT22;11982;50.810;4.442;2023-12-20T11:26:08;7.50;99.90
23609;DHT22;11982;50.810;4.442;2023-12-20T11:28:33;7.50;99.90
23609;DHT22;11982;50.810;4.442;2023-12-20T11:31:01;7.40;99.90
23609;DHT22;11982;50.810;4.442;2023-12-20T11:35:58;7.50;99.90
23609;DHT22;11982;50.810;4.442;2023-12-20T11:38:25;7.30;99.90
23609;DHT22;11982;50.810;4.442;2023-12-20T11:40:51;7.30;99.90
23609;DHT22;11982;50.810;4.442;2023-12-20T11:46:05;7.30;99.90
23609;DHT22;11982;50.810;4.442;2023-12-20T11:48:32;7.20;99.90
23609;DHT22;11982;50.810;4.442;2023-12-20T11:50:58;7.20;99.90
23609;DHT22;11982;50.810;4.442;2023-12-20T11:53:24;7.20;99.90
23609;DHT22;11982;50.810;4.442;2023-12-20T11:55:50;7.10;99.90
23609;DHT22;11982;50.810;4.442;2023-12-20T11:58:16;7.20;99.90
23609;DHT22;11982;50.810;4.442;2023-12-20T12:00:42;7.20;99.90
23609;DHT22;11982;50.810;4.442;2023-12-20T12:03:09;7.20;99.90
23609;DHT22;11982;50.810;4.442;2023-12-20T12:05:35;7.20;99.90
23609;DHT22;11982;50.810;4.442;2023-12-20T12:08:02;7.30;99.90
23609;DHT22;11982;50.810;4.442;2023-12-20T12:13:49;7.30;99.90
23609;DHT22;11982;50.810;4.442;2023-12-20T12:16:19;7.40;99.90
23609;DHT22;11982;50.810;4.442;2023-12-20T12:18:45;7.40;99.90
23609;DHT22;11982;50.810;4.442;2023-12-20T12:21:19;7.40;99.90
23609;DHT22;11982;50.810;4.442;2023-12-20T12:23:46;7.40;99.90
23609;DHT22;11982;50.810;4.442;2023-12-20T12:26:11;7.40;99.90
23609;DHT22;11982;50.810;4.442;2023-12-20T12:28:40;7.50;99.90
23609;DHT22;11982;50.810;4.442;2023-12-20T12:31:06;7.60;99.90
23609;DHT22;11982;50.810;4.442;2023-12-20T12:33:32;7.60;99.90
23609;DHT22;11982;50.810;4.442;2023-12-20T12:35:58;7.60;99.90
23609;DHT22;11982;50.810;4.442;2023-12-20T12:38:25;7.70;99.90
23609;DHT22;11982;50.810;4.442;2023-12-20T12:44:12;7.70;99.90
23609;DHT22;11982;50.810;4.442;2023-12-20T12:46:38;7.70;99.90
23609;DHT22;11982;50.810;4.442;2023-12-20T12:49:04;7.70;99.90
23609;DHT22;11982;50.810;4.442;2023-12-20T12:51:30;7.70;99.90
23609;DHT22;11982;50.810;4.442;2023-12-20T12:53:57;7.70;99.90
23609;DHT22;11982;50.810;4.442;2023-12-20T12:56:22;7.70;99.90
23609;DHT22;11982;50.810;4.442;2023-12-20T12:58:48;7.70;99.90
23609;DHT22;11982;50.810;4.442;2023-12-20T13:01:14;7.70;99.90
23609;DHT22;11982;50.810;4.442;2023-12-20T13:03:40;7.70;99.90
23609;DHT22;11982;50.810;4.442;2023-12-20T13:06:06;7.70;99.90
23609;DHT22;11982;50.810;4.442;2023-12-20T13:08:34;7.80;99.90
23609;DHT22;11982;50.810;4.442;2023-12-20T13:14:21;7.90;99.90
23609;DHT22;11982;50.810;4.442;2023-12-20T13:16:47;7.80;99.90
23609;DHT22;11982;50.810;4.442;2023-12-20T13:19:13;7.90;99.90
23609;DHT22;11982;50.810;4.442;2023-12-20T13:21:38;7.80;99.90
23609;DHT22;11982;50.810;4.442;2023-12-20T13:24:05;7.80;99.90
23609;DHT22;11982;50.810;4.442;2023-12-20T13:26:31;7.80;99.90
23609;DHT22;11982;50.810;4.442;2023-12-20T13:28:56;7.80;99.90
23609;DHT22;11982;50.810;4.442;2023-12-20T13:31:22;7.80;99.90
23609;DHT22;11982;50.810;4.442;2023-12-20T13:33:48;7.80;99.90
23609;DHT22;11982;50.810;4.442;2023-12-20T13:36:13;7.90;99.90
23609;DHT22;11982;50.810;4.442;2023-12-20T13:38:43;7.90;99.90
23609;DHT22;11982;50.810;4.442;2023-12-20T13:44:31;8.10;99.90
23609;DHT22;11982;50.810;4.442;2023-12-20T13:46:56;8.10;99.90
23609;DHT22;11982;50.810;4.442;2023-12-20T13:49:22;8.10;99.90
23609;DHT22;11982;50.810;4.442;2023-12-20T13:51:51;8.10;99.90
23609;DHT22;11982;50.810;4.442;2023-12-20T13:54:16;8.10;99.90
23609;DHT22;11982;50.810;4.442;2023-12-20T14:00:19;8.20;99.90
23609;DHT22;11982;50.810;4.442;2023-12-20T14:02:45;8.20;99.90
23609;DHT22;11982;50.810;4.442;2023-12-20T14:05:11;8.20;99.90
23609;DHT22;11982;50.810;4.442;2023-12-20T14:07:38;8.20;99.90
23609;DHT22;11982;50.810;4.442;2023-12-20T14:10:05;8.20;99.90
23609;DHT22;11982;50.810;4.442;2023-12-20T14:12:31;8.30;99.90
23609;DHT22;11982;50.810;4.442;2023-12-20T14:15:01;8.30;99.90
23609;DHT22;11982;50.810;4.442;2023-12-20T14:17:26;8.30;99.90
23609;DHT22;11982;50.810;4.442;2023-12-20T14:19:52;8.30;99.90
23609;DHT22;11982;50.810;4.442;2023-12-20T14:22:20;8.30;99.90
23609;DHT22;11982;50.810;4.442;2023-12-20T14:31:10;8.40;99.90
23609;DHT22;11982;50.810;4.442;2023-12-20T14:33:36;8.40;99.90
23609;DHT22;11982;50.810;4.442;2023-12-20T14:36:06;8.40;99.90
23609;DHT22;11982;50.810;4.442;2023-12-20T14:38:32;8.40;99.90
23609;DHT22;11982;50.810;4.442;2023-12-20T14:40:58;8.50;99.90
23609;DHT22;11982;50.810;4.442;2023-12-20T14:43:24;8.50;99.90
23609;DHT22;11982;50.810;4.442;2023-12-20T14:45:52;8.50;99.90
23609;DHT22;11982;50.810;4.442;2023-12-20T14:48:17;8.50;99.90
23609;DHT22;11982;50.810;4.442;2023-12-20T14:50:43;8.50;99.90
23609;DHT22;11982;50.810;4.442;2023-12-20T14:53:09;8.50;99.90
23609;DHT22;11982;50.810;4.442;2023-12-20T14:55:35;8.50;99.90
23609;DHT22;11982;50.810;4.442;2023-12-20T14:58:01;8.50;99.90
23609;DHT22;11982;50.810;4.442;2023-12-20T15:00:27;8.50;99.90
23609;DHT22;11982;50.810;4.442;2023-12-20T15:02:53;8.50;99.90
23609;DHT22;11982;50.810;4.442;2023-12-20T15:05:19;8.60;99.90
23609;DHT22;11982;50.810;4.442;2023-12-20T15:07:45;8.60;99.90
23609;DHT22;11982;50.810;4.442;2023-12-20T15:10:13;8.60;99.90
23609;DHT22;11982;50.810;4.442;2023-12-20T15:16:00;8.60;99.90
23609;DHT22;11982;50.810;4.442;2023-12-20T15:18:26;8.60;99.90
23609;DHT22;11982;50.810;4.442;2023-12-20T15:20:51;8.60;99.90
23609;DHT22;11982;50.810;4.442;2023-12-20T15:23:17;8.60;99.90
23609;DHT22;11982;50.810;4.442;2023-12-20T15:25:43;8.60;99.90
23609;DHT22;11982;50.810;4.442;2023-12-20T15:28:09;8.60;99.90
23609;DHT22;11982;50.810;4.442;2023-12-20T15:30:36;8.60;99.90
23609;DHT22;11982;50.810;4.442;2023-12-20T15:33:02;8.70;99.90
23609;DHT22;11982;50.810;4.442;2023-12-20T15:35:28;8.70;99.90
23609;DHT22;11982;50.810;4.442;2023-12-20T15:37:54;8.70;99.90
23609;DHT22;11982;50.810;4.442;2023-12-20T15:40:20;8.70;99.90
23609;DHT22;11982;50.810;4.442;2023-12-20T15:46:09;8.70;99.90
23609;DHT22;11982;50.810;4.442;2023-12-20T15:48:35;8.70;99.90
23609;DHT22;11982;50.810;4.442;2023-12-20T15:51:08;8.70;99.90
23609;DHT22;11982;50.810;4.442;2023-12-20T15:53:34;8.70;99.90
23609;DHT22;11982;50.810;4.442;2023-12-20T15:56:01;8.70;99.90
23609;DHT22;11982;50.810;4.442;2023-12-20T15:58:27;8.80;99.90
23609;DHT22;11982;50.810;4.442;2023-12-20T16:00:53;8.80;99.90
23609;DHT22;11982;50.810;4.442;2023-12-20T16:03:19;8.80;99.90
23609;DHT22;11982;50.810;4.442;2023-12-20T16:05:44;8.80;99.90
23609;DHT22;11982;50.810;4.442;2023-12-20T16:08:10;8.70;99.90
23609;DHT22;11982;50.810;4.442;2023-12-20T16:10:36;8.70;99.90
23609;DHT22;11982;50.810;4.442;2023-12-20T16:16:23;8.70;99.90
23609;DHT22;11982;50.810;4.442;2023-12-20T16:18:49;8.70;99.90
23609;DHT22;11982;50.810;4.442;2023-12-20T16:21:14;8.70;99.90
23609;DHT22;11982;50.810;4.442;2023-12-20T16:23:40;8.70;99.90
23609;DHT22;11982;50.810;4.442;2023-12-20T16:26:06;8.70;99.90
23609;DHT22;11982;50.810;4.442;2023-12-20T16:31:53;8.70;99.90
23609;DHT22;11982;50.810;4.442;2023-12-20T16:34:19;8.70;99.90
23609;DHT22;11982;50.810;4.442;2023-12-20T16:36:52;8.70;99.90
23609;DHT22;11982;50.810;4.442;2023-12-20T16:39:19;8.70;99.90
23609;DHT22;11982;50.810;4.442;2023-12-20T16:41:45;8.70;99.90
23609;DHT22;11982;50.810;4.442;2023-12-20T16:44:11;8.70;99.90
23609;DHT22;11982;50.810;4.442;2023-12-20T16:46:37;8.70;99.90
23609;DHT22;11982;50.810;4.442;2023-12-20T16:49:02;8.70;99.90
23609;DHT22;11982;50.810;4.442;2023-12-20T16:51:28;8.70;99.90
23609;DHT22;11982;50.810;4.442;2023-12-20T16:53:55;8.70;99.90
23609;DHT22;11982;50.810;4.442;2023-12-20T16:56:20;8.60;99.90
23609;DHT22;11982;50.810;4.442;2023-12-20T17:02:35;8.60;99.90
23609;DHT22;11982;50.810;4.442;2023-12-20T17:05:01;8.60;99.90
23609;DHT22;11982;50.810;4.442;2023-12-20T17:07:26;8.70;99.90
23609;DHT22;11982;50.810;4.442;2023-12-20T17:09:53;8.60;99.90
23609;DHT22;11982;50.810;4.442;2023-12-20T17:12:18;8.70;99.90
23609;DHT22;11982;50.810;4.442;2023-12-20T17:14:45;8.70;99.90
23609;DHT22;11982;50.810;4.442;2023-12-20T17:17:10;8.70;99.90
23609;DHT22;11982;50.810;4.442;2023-12-20T17:19:36;8.70;99.90
23609;DHT22;11982;50.810;4.442;2023-12-20T17:22:02;8.70;99.90
23609;DHT22;11982;50.810;4.442;2023-12-20T17:24:29;8.60;99.90
23609;DHT22;11982;50.810;4.442;2023-12-20T17:26:54;8.60;99.90
23609;DHT22;11982;50.810;4.442;2023-12-20T17:29:20;8.60;99.90
23609;DHT22;11982;50.810;4.442;2023-12-20T17:31:46;8.50;99.90
23609;DHT22;11982;50.810;4.442;2023-12-20T17:34:11;8.50;99.90
23609;DHT22;11982;50.810;4.442;2023-12-20T17:36:39;8.50;99.90
23609;DHT22;11982;50.810;4.442;2023-12-20T17:39:05;8.50;99.90
23609;DHT22;11982;50.810;4.442;2023-12-20T17:41:31;8.50;99.90
23609;DHT22;11982;50.810;4.442;2023-12-20T17:47:20;8.50;99.90
23609;DHT22;11982;50.810;4.442;2023-12-20T17:49:45;8.60;99.90
23609;DHT22;11982;50.810;4.442;2023-12-20T17:52:11;8.60;99.90
23609;DHT22;11982;50.810;4.442;2023-12-20T17:54:36;8.60;99.90
23609;DHT22;11982;50.810;4.442;2023-12-20T17:57:02;8.70;99.90
23609;DHT22;11982;50.810;4.442;2023-12-20T18:02:51;8.70;99.90
23609;DHT22;11982;50.810;4.442;2023-12-20T18:05:18;8.80;99.90
23609;DHT22;11982;50.810;4.442;2023-12-20T18:07:44;8.80;99.90